createdAt,value
2023-01-22T00:02:23.328Z,103445.65
2023-01-22T00:04:53.182Z,103445.56
2023-01-22T00:07:22.962Z,103445.75
2023-01-22T00:09:52.796Z,103444.95
2023-01-22T00:12:22.671Z,103447.02
2023-01-22T00:14:53.681Z,103448.79
2023-01-22T00:17:23.228Z,103443.92
2023-01-22T00:19:53.307Z,103445.73
2023-01-22T00:22:23.285Z,103445.73
2023-01-22T00:24:53.111Z,103452.50
2023-01-22T00:27:22.889Z,103452.50
2023-01-22T00:29:53.140Z,103446.98
2023-01-22T00:32:23.084Z,103440.78
2023-01-22T00:34:54.544Z,103440.98
2023-01-22T00:37:24.728Z,103438.67
2023-01-22T00:39:54.378Z,103438.67
2023-01-22T00:42:24.211Z,103431.42
2023-01-22T00:44:54.080Z,103422.13
2023-01-22T00:47:23.929Z,103425.95
2023-01-22T00:49:53.990Z,103416.36
2023-01-22T00:52:24.114Z,103408.94
2023-01-22T00:54:53.879Z,103416.22
2023-01-22T00:57:23.668Z,103416.42
2023-01-22T00:59:53.607Z,103419.67
2023-01-22T01:02:24.373Z,103414.37
2023-01-22T01:04:56.521Z,103417.62
2023-01-22T01:07:26.594Z,103408.94
2023-01-22T01:09:56.346Z,103406.20
2023-01-22T01:12:26.394Z,103395.73
2023-01-22T01:14:56.575Z,103395.73
2023-01-22T01:17:26.752Z,103403.98
2023-01-22T01:19:56.302Z,103402.32
2023-01-22T01:22:25.799Z,103402.39
2023-01-22T01:24:55.876Z,103403.30
2023-01-22T01:27:25.664Z,103403.66
2023-01-22T01:29:55.746Z,103407.75
2023-01-22T01:32:25.756Z,103407.28
2023-01-22T01:34:55.826Z,103416.66
2023-01-22T01:37:25.753Z,103406.92
2023-01-22T01:39:55.359Z,103394.22
2023-01-22T01:42:30.725Z,103393.75
2023-01-22T01:45:30.891Z,103393.75
2023-01-22T01:48:27.635Z,103386.52
2023-01-22T01:51:03.114Z,103391.94
2023-01-22T01:53:33.835Z,103393.27
2023-01-22T01:56:06.552Z,103387.45
2023-01-22T01:58:39.015Z,103395.09
2023-01-22T02:01:11.610Z,103392.73
2023-01-22T02:03:42.516Z,103383.30
2023-01-22T02:06:17.905Z,103368.96
2023-01-22T02:08:49.743Z,103368.96
2023-01-22T02:11:20.960Z,103376.99
2023-01-22T02:14:02.967Z,103366.90
2023-01-22T02:16:33.867Z,103374.13
2023-01-22T02:19:04.415Z,103380.28
2023-01-22T02:21:37.703Z,103380.55
2023-01-22T02:24:13.321Z,103374.39
2023-01-22T02:26:45.420Z,103378.30
2023-01-22T02:29:16.992Z,103378.30
2023-01-22T02:31:47.166Z,103375.73
2023-01-22T02:34:17.046Z,103369.65
2023-01-22T02:36:47.787Z,103373.12
2023-01-22T02:39:17.800Z,103371.06
2023-01-22T02:41:47.835Z,103371.06
2023-01-22T02:44:18.042Z,103376.07
2023-01-22T02:46:47.808Z,103367.30
2023-01-22T02:49:17.680Z,103375.52
2023-01-22T02:51:47.570Z,103376.52
2023-01-22T02:54:17.280Z,103372.05
2023-01-22T02:56:47.058Z,103374.97
2023-01-22T02:59:16.973Z,103381.16
2023-01-22T03:01:46.832Z,103384.08
2023-01-22T03:04:17.228Z,103382.79
2023-01-22T03:06:47.860Z,103381.20
2023-01-22T03:09:18.999Z,103382.83
2023-01-22T03:11:49.046Z,103376.91
2023-01-22T03:14:38.065Z,103381.55
2023-01-22T03:17:26.960Z,103378.24
2023-01-22T03:20:15.971Z,103365.13
2023-01-22T03:22:45.879Z,103370.56
2023-01-22T03:25:15.841Z,103360.12
2023-01-22T03:28:03.215Z,103354.84
2023-01-22T03:30:34.435Z,103361.68
2023-01-22T03:33:04.319Z,103356.99
2023-01-22T03:35:34.490Z,103356.15
2023-01-22T03:38:08.115Z,103356.16
2023-01-22T03:40:38.256Z,103356.56
2023-01-22T03:43:08.298Z,103346.78
2023-01-22T03:45:38.592Z,103346.78
2023-01-22T03:48:10.610Z,103349.20
2023-01-22T03:50:40.975Z,103348.91
2023-01-22T03:53:10.854Z,103353.58
2023-01-22T03:55:40.687Z,103353.67
2023-01-22T03:58:11.782Z,103359.19
2023-01-22T04:00:42.113Z,103357.88
2023-01-22T04:03:12.055Z,103358.28
2023-01-22T04:05:41.991Z,103359.58
2023-01-22T04:08:12.635Z,103353.90
2023-01-22T04:10:44.566Z,103353.16
2023-01-22T04:13:15.582Z,103345.53
2023-01-22T04:15:47.282Z,103342.86
2023-01-22T04:18:18.783Z,103341.64
2023-01-22T04:20:54.439Z,103348.98
2023-01-22T04:23:28.605Z,103353.55
2023-01-22T04:25:59.329Z,103353.55
2023-01-22T04:28:29.377Z,103348.42
2023-01-22T04:31:00.620Z,103349.30
2023-01-22T04:33:44.042Z,103344.67
2023-01-22T04:36:15.210Z,103341.28
2023-01-22T04:38:45.100Z,103334.22
2023-01-22T04:41:14.903Z,103335.45
2023-01-22T04:43:45.528Z,103337.34
2023-01-22T04:46:15.664Z,103334.30
2023-01-22T04:48:46.418Z,103330.59
2023-01-22T04:51:16.446Z,103329.73
2023-01-22T04:53:46.929Z,103329.73
2023-01-22T04:56:18.348Z,103332.88
2023-01-22T04:58:49.534Z,103332.88
2023-01-22T05:01:19.455Z,103326.85
2023-01-22T05:03:49.729Z,103334.46
2023-01-22T05:06:19.210Z,103328.66
2023-01-22T05:08:48.990Z,103333.20
2023-01-22T05:11:18.908Z,103339.79
2023-01-22T05:13:56.203Z,103333.36
2023-01-22T05:16:25.719Z,103323.69
2023-01-22T05:18:56.114Z,103333.36
2023-01-22T05:21:27.039Z,103324.16
2023-01-22T05:23:57.062Z,103329.39
2023-01-22T05:26:28.605Z,103325.59
2023-01-22T05:29:00.074Z,103334.13
2023-01-22T05:31:31.364Z,103335.47
2023-01-22T05:34:11.100Z,103342.19
2023-01-22T05:36:40.873Z,103345.27
2023-01-22T05:39:12.506Z,103345.27
2023-01-22T05:41:43.741Z,103341.86
2023-01-22T05:44:15.468Z,103351.27
2023-01-22T05:46:46.938Z,103354.03
2023-01-22T05:49:18.523Z,103353.73
2023-01-22T05:51:48.556Z,103353.25
2023-01-22T05:54:19.022Z,103354.21
2023-01-22T05:56:50.259Z,103349.93
2023-01-22T05:59:20.135Z,103347.91
2023-01-22T06:01:54.612Z,103349.45
2023-01-22T06:04:24.514Z,103352.67
2023-01-22T06:06:54.637Z,103354.16
2023-01-22T06:09:24.847Z,103358.16
2023-01-22T06:11:55.129Z,103355.50
2023-01-22T06:14:25.348Z,103353.95
2023-01-22T06:16:56.867Z,103358.00
2023-01-22T06:19:29.027Z,103358.34
2023-01-22T06:21:59.286Z,103355.13
2023-01-22T06:24:33.162Z,103353.61
2023-01-22T06:27:04.362Z,103355.72
2023-01-22T06:29:35.857Z,103348.59
2023-01-22T06:32:07.120Z,103344.03
2023-01-22T06:34:38.211Z,103346.18
2023-01-22T06:37:08.139Z,103350.80
2023-01-22T06:39:39.661Z,103356.11
2023-01-22T06:42:14.194Z,103356.16
2023-01-22T06:44:44.461Z,103356.88
2023-01-22T06:47:14.620Z,103357.45
2023-01-22T06:49:44.399Z,103357.77
2023-01-22T06:52:14.206Z,103351.42
2023-01-22T06:54:43.956Z,103360.08
2023-01-22T06:57:13.808Z,103363.62
2023-01-22T06:59:43.703Z,103365.66
2023-01-22T07:02:20.396Z,103363.11
2023-01-22T07:04:50.207Z,103368.34
2023-01-22T07:07:20.301Z,103371.28
2023-01-22T07:09:50.086Z,103365.97
2023-01-22T07:12:19.880Z,103372.00
2023-01-22T07:14:49.746Z,103369.36
2023-01-22T07:17:19.241Z,103367.31
2023-01-22T07:19:49.056Z,103362.76
2023-01-22T07:22:18.884Z,103361.80
2023-01-22T07:24:48.650Z,103363.69
2023-01-22T07:27:18.880Z,103369.81
2023-01-22T07:29:50.078Z,103374.38
2023-01-22T07:32:20.002Z,103364.98
2023-01-22T07:34:49.795Z,103374.72
2023-01-22T07:37:19.560Z,103361.20
2023-01-22T07:39:49.355Z,103369.04
2023-01-22T07:42:19.145Z,103368.95
2023-01-22T07:44:48.906Z,103374.31
2023-01-22T07:47:19.066Z,103370.50
2023-01-22T07:49:48.848Z,103368.02
2023-01-22T07:52:18.903Z,103372.64
2023-01-22T07:54:48.749Z,103379.14
2023-01-22T07:57:18.733Z,103383.27
2023-01-22T07:59:48.269Z,103386.00
2023-01-22T08:02:19.029Z,103385.22
2023-01-22T08:04:48.962Z,103385.22
2023-01-22T08:07:19.250Z,103391.14
2023-01-22T08:09:49.111Z,103390.52
2023-01-22T08:12:19.234Z,103392.41
2023-01-22T08:14:49.073Z,103402.75
2023-01-22T08:17:18.861Z,103394.77
2023-01-22T08:19:48.694Z,103397.20
2023-01-22T08:22:18.608Z,103392.86
2023-01-22T08:24:48.452Z,103392.47
2023-01-22T08:27:18.623Z,103385.05
2023-01-22T08:29:49.922Z,103392.11
2023-01-22T08:32:21.179Z,103397.97
2023-01-22T08:34:52.661Z,103393.08
2023-01-22T08:37:23.504Z,103400.50
2023-01-22T08:39:53.076Z,103398.97
2023-01-22T08:42:22.881Z,103398.75
2023-01-22T08:44:52.777Z,103401.59
2023-01-22T08:47:22.560Z,103400.12
2023-01-22T08:49:52.321Z,103393.06
2023-01-22T08:52:22.109Z,103398.04
2023-01-22T08:54:51.921Z,103391.41
2023-01-22T08:57:21.790Z,103396.48
2023-01-22T09:00:00.811Z,103397.91
2023-01-22T09:02:23.073Z,103407.92
2023-01-22T09:04:52.913Z,103412.03
2023-01-22T09:07:22.739Z,103406.25
2023-01-22T09:09:52.507Z,103406.92
2023-01-22T09:12:22.164Z,103409.45
2023-01-22T09:14:52.318Z,103402.89
2023-01-22T09:17:22.105Z,103409.92
2023-01-22T09:19:51.884Z,103411.88
2023-01-22T09:22:21.812Z,103406.36
2023-01-22T09:24:51.577Z,103405.11
2023-01-22T09:27:21.466Z,103404.20
2023-01-22T09:29:51.221Z,103404.20
2023-01-22T09:32:20.971Z,103401.52
2023-01-22T09:34:50.764Z,103402.42
2023-01-22T09:37:20.697Z,103405.80
2023-01-22T09:39:51.020Z,103410.05
2023-01-22T09:42:26.561Z,103407.62
2023-01-22T09:44:59.086Z,103414.56
2023-01-22T09:47:40.806Z,103415.69
2023-01-22T09:50:30.959Z,103417.33
2023-01-22T09:53:03.796Z,103417.81
2023-01-22T09:55:36.613Z,103420.49
2023-01-22T09:58:10.867Z,103423.27
2023-01-22T10:00:44.635Z,103423.27
2023-01-22T10:03:18.470Z,103427.00
2023-01-22T10:05:53.983Z,103425.40
2023-01-22T10:08:29.594Z,103428.55
2023-01-22T10:11:01.954Z,103427.22
2023-01-22T10:13:35.519Z,103431.55
2023-01-22T10:16:07.417Z,103436.30
2023-01-22T10:19:10.022Z,103437.19
2023-01-22T10:24:28.287Z,103426.25
2023-01-22T10:26:59.666Z,103428.95
2023-01-22T10:29:32.491Z,103428.16
2023-01-22T10:32:05.269Z,103423.57
2023-01-22T10:34:36.994Z,103418.27
2023-01-22T10:37:15.353Z,103421.92
2023-01-22T10:39:47.809Z,103421.92
2023-01-22T10:42:26.149Z,103422.69
2023-01-22T10:45:13.324Z,103423.35
2023-01-22T10:47:43.273Z,103423.55
2023-01-22T10:50:17.829Z,103419.29
2023-01-22T10:52:54.777Z,103417.52
2023-01-22T10:55:36.379Z,103409.91
2023-01-22T10:58:09.513Z,103412.69
2023-01-22T11:00:51.928Z,103409.89
2023-01-22T11:03:25.053Z,103414.41
2023-01-22T11:06:00.321Z,103407.15
2023-01-22T11:08:33.024Z,103413.91
2023-01-22T11:11:05.849Z,103412.94
2023-01-22T11:13:56.611Z,103411.83
2023-01-22T11:16:27.106Z,103413.48
2023-01-22T11:19:02.873Z,103419.26
2023-01-22T11:21:53.553Z,103410.47
2023-01-22T11:24:42.131Z,103405.50
2023-01-22T11:27:27.002Z,103401.81
2023-01-22T11:30:11.563Z,103401.35
2023-01-22T11:33:00.758Z,103399.49
2023-01-22T11:36:08.785Z,103397.67
2023-01-22T11:39:01.579Z,103397.08
2023-01-22T11:41:40.293Z,103396.81
2023-01-22T11:44:34.549Z,103389.69
2023-01-22T11:47:26.736Z,103379.86
2023-01-22T11:50:14.269Z,103371.14
2023-01-22T11:53:02.001Z,103374.13
2023-01-22T11:55:34.824Z,103369.30
2023-01-22T11:58:19.240Z,103366.61
2023-01-22T12:00:57.697Z,103368.80
2023-01-22T12:03:33.502Z,103368.80
2023-01-22T12:06:20.913Z,103365.47
2023-01-22T12:08:56.317Z,103365.52
2023-01-22T12:12:01.777Z,103356.91
2023-01-22T12:14:54.984Z,103354.92
2023-01-22T12:17:36.723Z,103350.83
2023-01-22T12:20:15.939Z,103350.70
2023-01-22T12:22:48.906Z,103350.66
2023-01-22T12:25:39.247Z,103351.77
2023-01-22T12:28:21.044Z,103346.44
2023-01-22T12:31:06.102Z,103353.21
2023-01-22T12:33:40.954Z,103353.61
2023-01-22T12:36:16.221Z,103357.59
2023-01-22T12:39:04.159Z,103358.94
2023-01-22T12:41:44.242Z,103366.47
2023-01-22T12:44:33.366Z,103357.64
2023-01-22T12:47:20.827Z,103361.05
2023-01-22T12:49:52.655Z,103366.45
2023-01-22T12:52:28.050Z,103369.72
2023-01-22T12:54:58.424Z,103364.84
2023-01-22T12:57:31.270Z,103362.44
2023-01-22T13:00:04.211Z,103362.68
2023-01-22T13:02:39.279Z,103367.73
2023-01-22T13:05:29.630Z,103369.28
2023-01-22T13:08:19.925Z,103361.91
2023-01-22T13:10:58.585Z,103368.06
2023-01-22T13:13:37.157Z,103374.12
2023-01-22T13:16:10.077Z,103376.97
2023-01-22T13:18:54.522Z,103386.68
2023-01-22T13:21:33.017Z,103381.05
2023-01-22T13:24:06.477Z,103375.23
2023-01-22T13:26:38.581Z,103382.21
2023-01-22T13:29:20.283Z,103373.27
2023-01-22T13:31:55.256Z,103375.65
2023-01-22T13:34:25.954Z,103372.95
2023-01-22T13:36:56.657Z,103372.96
2023-01-22T13:39:29.865Z,103376.84
2023-01-22T13:42:05.060Z,103375.69
2023-01-22T13:44:37.696Z,103376.42
2023-01-22T13:47:07.808Z,103380.09
2023-01-22T13:49:44.828Z,103380.71
2023-01-22T13:52:20.893Z,103378.50
2023-01-22T13:55:02.815Z,103382.73
2023-01-22T13:57:33.221Z,103388.31
2023-01-22T14:00:05.016Z,103392.68
2023-01-22T14:02:36.960Z,103395.89
2023-01-22T14:05:11.348Z,103393.55
2023-01-22T14:07:41.954Z,103393.55
2023-01-22T14:10:18.213Z,103400.38
2023-01-22T14:12:49.695Z,103399.70
2023-01-22T14:15:21.957Z,103401.12
2023-01-22T14:17:52.001Z,103412.69
2023-01-22T14:20:22.021Z,103398.94
2023-01-22T14:22:52.230Z,103400.28
2023-01-22T14:25:22.055Z,103406.58
2023-01-22T14:27:52.127Z,103407.35
2023-01-22T14:30:22.684Z,103404.75
2023-01-22T14:32:52.911Z,103403.53
2023-01-22T14:35:24.933Z,103407.69
2023-01-22T14:37:55.997Z,103413.31
2023-01-22T14:40:27.392Z,103417.06
2023-01-22T14:42:58.660Z,103413.36
2023-01-22T14:45:29.089Z,103418.95
2023-01-22T14:48:00.495Z,103424.24
2023-01-22T14:50:30.338Z,103414.91
2023-01-22T14:53:00.222Z,103424.81
2023-01-22T14:55:30.156Z,103423.31
2023-01-22T14:58:00.441Z,103424.48
2023-01-22T15:00:30.605Z,103427.94
2023-01-22T15:03:01.305Z,103424.13
2023-01-22T15:05:33.311Z,103419.13
2023-01-22T15:08:03.229Z,103424.24
2023-01-22T15:10:33.151Z,103423.31
2023-01-22T15:13:03.407Z,103427.13
2023-01-22T15:15:33.564Z,103426.11
2023-01-22T15:18:03.525Z,103420.14
2023-01-22T15:20:33.842Z,103422.59
2023-01-22T15:23:03.689Z,103417.59
2023-01-22T15:25:33.622Z,103415.58
2023-01-22T15:28:03.925Z,103412.55
2023-01-22T15:30:33.669Z,103415.82
2023-01-22T15:33:03.492Z,103417.41
2023-01-22T15:35:33.250Z,103416.98
2023-01-22T15:38:05.325Z,103421.55
2023-01-22T15:40:36.554Z,103419.08
2023-01-22T15:43:06.860Z,103420.42
2023-01-22T15:45:36.764Z,103424.61
2023-01-22T15:48:08.046Z,103428.41
2023-01-22T15:50:37.806Z,103421.02
2023-01-22T15:53:07.595Z,103432.17
2023-01-22T15:55:37.406Z,103430.82
2023-01-22T15:58:08.018Z,103429.97
2023-01-22T16:00:38.034Z,103427.65
2023-01-22T16:03:08.306Z,103427.65
2023-01-22T16:05:38.524Z,103440.15
2023-01-22T16:08:08.435Z,103434.33
2023-01-22T16:10:38.222Z,103442.80
2023-01-22T16:13:08.193Z,103438.86
2023-01-22T16:15:38.095Z,103440.97
2023-01-22T16:18:07.875Z,103440.45
2023-01-22T16:20:37.666Z,103433.67
2023-01-22T16:23:09.019Z,103427.59
2023-01-22T16:25:40.831Z,103430.97
2023-01-22T16:28:12.269Z,103433.52
2023-01-22T16:30:42.963Z,103434.72
2023-01-22T16:33:30.494Z,103436.06
2023-01-22T16:36:05.131Z,103445.73
2023-01-22T16:38:36.241Z,103451.55
2023-01-22T16:41:27.845Z,103452.86
2023-01-22T16:43:59.188Z,103450.54
2023-01-22T16:46:31.965Z,103452.81
2023-01-22T16:49:05.566Z,103452.27
2023-01-22T16:51:39.038Z,103452.27
2023-01-22T16:54:11.008Z,103459.25
2023-01-22T16:56:42.128Z,103461.12
2023-01-22T16:59:12.199Z,103467.72
2023-01-22T17:01:42.500Z,103467.14
2023-01-22T17:04:13.924Z,103465.80
2023-01-22T17:06:47.049Z,103460.02
2023-01-22T17:09:19.658Z,103468.55
2023-01-22T17:11:54.916Z,103466.71
2023-01-22T17:14:27.165Z,103455.78
2023-01-22T17:16:57.850Z,103459.55
2023-01-22T17:19:28.705Z,103457.03
2023-01-22T17:21:59.367Z,103454.86
2023-01-22T17:24:30.536Z,103457.91
2023-01-22T17:27:02.193Z,103463.73
2023-01-22T17:29:34.651Z,103463.73
2023-01-22T17:32:05.797Z,103462.95
2023-01-22T17:34:37.215Z,103458.91
2023-01-22T17:37:08.654Z,103464.41
2023-01-22T17:39:39.319Z,103461.75
2023-01-22T17:42:09.890Z,103466.47
2023-01-22T17:44:40.912Z,103474.55
2023-01-22T17:47:11.318Z,103479.89
2023-01-22T17:49:41.300Z,103495.03
2023-01-22T17:52:11.499Z,103499.64
2023-01-22T17:54:41.496Z,103500.23
2023-01-22T17:57:11.787Z,103495.09
2023-01-22T17:59:41.762Z,103495.71
2023-01-22T18:02:12.154Z,103495.58
2023-01-22T18:04:41.949Z,103495.72
2023-01-22T18:07:12.702Z,103497.30
2023-01-22T18:09:42.575Z,103497.30
2023-01-22T18:12:12.165Z,103499.27
2023-01-22T18:14:41.944Z,103486.18
2023-01-22T18:17:12.265Z,103487.53
2023-01-22T18:19:42.030Z,103493.11
2023-01-22T18:22:11.714Z,103485.43
2023-01-22T18:24:43.529Z,103486.77
2023-01-22T18:27:13.380Z,103488.25
2023-01-22T18:29:43.229Z,103489.59
2023-01-22T18:32:14.559Z,103489.59
2023-01-22T18:34:44.301Z,103494.38
2023-01-22T18:37:14.064Z,103494.80
2023-01-22T18:39:44.125Z,103497.70
2023-01-22T18:42:14.641Z,103495.36
2023-01-22T18:44:44.439Z,103509.70
2023-01-22T18:47:15.538Z,103501.32
2023-01-22T18:49:45.686Z,103504.70
2023-01-22T18:52:16.513Z,103509.61
2023-01-22T18:54:46.344Z,103498.33
2023-01-22T18:57:16.489Z,103497.58
2023-01-22T18:59:46.314Z,103496.33
2023-01-22T19:02:17.856Z,103499.92
2023-01-22T19:04:47.974Z,103502.28
2023-01-22T19:07:17.830Z,103501.74
2023-01-22T19:09:47.646Z,103499.29
2023-01-22T19:12:18.915Z,103512.16
2023-01-22T19:14:50.574Z,103512.13
2023-01-22T19:17:20.873Z,103522.22
2023-01-22T19:19:50.707Z,103518.38
2023-01-22T19:22:22.170Z,103521.22
2023-01-22T19:24:52.357Z,103517.42
2023-01-22T19:27:22.241Z,103525.73
2023-01-22T19:29:52.029Z,103518.81
2023-01-22T19:32:23.452Z,103527.94
2023-01-22T19:34:53.227Z,103523.95
2023-01-22T19:37:23.287Z,103524.77
2023-01-22T19:39:53.211Z,103524.25
2023-01-22T19:42:24.341Z,103527.47
2023-01-22T19:44:54.263Z,103527.47
2023-01-22T19:47:24.133Z,103529.64
2023-01-22T19:49:54.106Z,103530.06
2023-01-22T19:52:23.608Z,103529.95
2023-01-22T19:54:53.561Z,103524.30
2023-01-22T19:57:23.964Z,103529.29
2023-01-22T19:59:55.670Z,103529.73
2023-01-22T20:02:25.661Z,103521.17
2023-01-22T20:04:55.585Z,103529.06
2023-01-22T20:07:25.863Z,103536.95
2023-01-22T20:09:56.076Z,103534.01
2023-01-22T20:12:25.554Z,103540.12
2023-01-22T20:14:55.436Z,103539.40
2023-01-22T20:17:25.251Z,103541.61
2023-01-22T20:19:55.535Z,103548.41
2023-01-22T20:22:25.286Z,103548.41
2023-01-22T20:24:55.461Z,103547.73
2023-01-22T20:27:25.721Z,103555.75
2023-01-22T20:29:55.547Z,103558.16
2023-01-22T20:32:27.311Z,103559.33
2023-01-22T20:34:57.679Z,103558.91
2023-01-22T20:37:27.514Z,103559.11
2023-01-22T20:39:58.809Z,103561.62
2023-01-22T20:42:28.742Z,103561.62
2023-01-22T20:44:58.524Z,103552.94
2023-01-22T20:47:28.290Z,103555.34
2023-01-22T20:49:58.121Z,103559.82
2023-01-22T20:52:27.550Z,103553.25
2023-01-22T20:55:01.753Z,103562.08
2023-01-22T20:57:31.216Z,103561.75
2023-01-22T21:00:01.012Z,103553.19
2023-01-22T21:02:30.847Z,103553.19
2023-01-22T21:05:00.785Z,103553.56
2023-01-22T21:07:30.529Z,103554.72
2023-01-22T21:10:00.331Z,103561.69
2023-01-22T21:12:30.162Z,103568.77
2023-01-22T21:15:00.274Z,103558.52
2023-01-22T21:17:31.828Z,103558.52
2023-01-22T21:20:01.694Z,103556.84
2023-01-22T21:22:31.610Z,103555.77
2023-01-22T21:25:01.574Z,103555.77
2023-01-22T21:27:31.339Z,103556.69
2023-01-22T21:30:01.605Z,103560.93
2023-01-22T21:32:31.390Z,103554.13
2023-01-22T21:35:02.932Z,103546.25
2023-01-22T21:37:32.833Z,103554.75
2023-01-22T21:40:02.648Z,103557.27
2023-01-22T21:42:50.186Z,103553.17
2023-01-22T21:45:37.495Z,103558.64
2023-01-22T21:48:08.757Z,103562.90
2023-01-22T21:50:42.321Z,103556.01
2023-01-22T21:53:12.844Z,103556.59
2023-01-22T21:55:53.530Z,103557.06
2023-01-22T21:58:23.303Z,103559.97
2023-01-22T22:00:54.882Z,103560.73
2023-01-22T22:03:24.649Z,103559.42
2023-01-22T22:06:02.146Z,103564.34
2023-01-22T22:08:32.056Z,103558.59
2023-01-22T22:11:03.470Z,103562.06
2023-01-22T22:13:35.128Z,103567.56
2023-01-22T22:16:08.698Z,103571.67
2023-01-22T22:18:38.579Z,103575.89
2023-01-22T22:21:09.205Z,103575.59
2023-01-22T22:23:39.179Z,103575.08
2023-01-22T22:26:11.516Z,103575.08
2023-01-22T22:28:41.285Z,103583.18
2023-01-22T22:31:14.140Z,103584.28
2023-01-22T22:33:49.583Z,103586.25
2023-01-22T22:36:22.168Z,103588.03
2023-01-22T22:38:52.229Z,103583.18
2023-01-22T22:41:24.915Z,103587.55
2023-01-22T22:43:56.102Z,103594.77
2023-01-22T22:46:27.609Z,103591.92
2023-01-22T22:49:00.190Z,103603.38
2023-01-22T22:51:40.738Z,103599.48
2023-01-22T22:54:16.852Z,103600.11
2023-01-22T22:56:48.240Z,103600.11
2023-01-22T22:59:19.936Z,103602.19
2023-01-22T23:01:51.921Z,103600.84
2023-01-22T23:04:21.913Z,103600.80
2023-01-22T23:06:52.100Z,103605.47
2023-01-22T23:09:22.434Z,103601.19
2023-01-22T23:11:53.143Z,103601.23
2023-01-22T23:14:24.080Z,103604.62
2023-01-22T23:16:53.881Z,103602.07
2023-01-22T23:19:26.637Z,103604.14
2023-01-22T23:21:59.040Z,103598.53
2023-01-22T23:24:29.057Z,103595.64
2023-01-22T23:26:58.698Z,103604.55
2023-01-22T23:29:29.440Z,103603.06
2023-01-22T23:31:59.328Z,103595.88
2023-01-22T23:34:28.925Z,103594.97
2023-01-22T23:36:58.702Z,103593.86
2023-01-22T23:39:28.493Z,103594.97
2023-01-22T23:41:58.263Z,103588.80
2023-01-22T23:44:27.885Z,103594.52
2023-01-22T23:46:57.653Z,103598.38
2023-01-22T23:49:27.213Z,103598.38
2023-01-22T23:51:57.111Z,103602.77
2023-01-22T23:54:26.680Z,103608.23
2023-01-22T23:56:56.547Z,103606.25
2023-01-22T23:59:26.731Z,103598.23
